Time;durP1;ratioP1;P1;durP2;ratioP2;P2;SDS_P1;SDS_P2;PMS_P1;PMS_P2;Temp;Humidity;BMP_temperature;BMP_pressure;BME280_temperature;BME280_humidity;BME280_pressure;Samples;Min_cycle;Max_cycle;Signal;HPM_P1;HPM_P2
2023/06/30 00:00:08;;;;;;;4.00;3.10;;;;;;;16.10;79.65;98311.61;78354;1298;3052287;-64
2023/06/30 00:02:40;;;;;;;7.40;2.70;;;;;;;15.92;80.84;98301.13;79082;1297;3011556;-63
2023/06/30 00:05:07;;;;;;;3.00;2.70;;;;;;;16.30;80.22;98290.48;79722;1294;3013514;-63
2023/06/30 00:07:36;;;;;;;5.00;3.00;;;;;;;16.50;78.88;98288.88;79092;1293;3012625;-63
2023/06/30 00:10:03;;;;;;;8.30;3.00;;;;;;;16.31;79.37;98295.23;79638;1292;3013768;-62
2023/06/30 00:12:30;;;;;;;4.40;3.20;;;;;;;16.23;79.70;98298.41;79546;1297;3011549;-60
2023/06/30 00:14:59;;;;;;;4.70;2.90;;;;;;;16.11;79.42;98295.95;78384;1296;3052259;-63
2023/06/30 00:17:25;;;;;;;4.60;2.10;;;;;;;15.84;81.11;98291.05;79700;1296;3013219;-61
2023/06/30 00:19:52;;;;;;;4.60;2.90;;;;;;;16.28;80.60;98292.77;79579;1292;3011883;-60
2023/06/30 00:22:20;;;;;;;4.60;3.10;;;;;;;16.40;79.55;98283.98;78463;1298;3048354;-61
2023/06/30 00:24:48;;;;;;;6.10;3.40;;;;;;;16.15;80.23;98286.44;79607;1292;3018436;-63
2023/06/30 00:27:15;;;;;;;4.00;3.00;;;;;;;16.08;80.89;98286.34;79657;1297;3013611;-64
2023/06/30 00:29:42;;;;;;;5.00;3.40;;;;;;;15.75;82.42;98284.02;78398;1299;3053368;-61
2023/06/30 00:32:09;;;;;;;4.00;2.70;;;;;;;15.92;81.41;98285.26;79667;1298;3012881;-63
2023/06/30 00:34:36;;;;;;;5.20;3.00;;;;;;;16.31;80.29;98288.20;79518;1297;3011587;-62
2023/06/30 00:37:03;;;;;;;7.50;3.10;;;;;;;16.47;79.48;98291.35;78379;1298;3029507;-65
2023/06/30 00:39:30;;;;;;;4.00;3.10;;;;;;;16.19;80.36;98291.36;79600;1298;3013156;-63
2023/06/30 00:41:57;;;;;;;5.80;3.10;;;;;;;15.80;82.16;98297.30;79641;1292;3011585;-64
2023/06/30 00:44:26;;;;;;;3.80;3.00;;;;;;;15.60;83.30;98287.05;78348;1298;3053708;-63
2023/06/30 00:46:53;;;;;;;3.20;2.30;;;;;;;15.47;83.86;98284.34;79598;1298;3020624;-64
2023/06/30 00:49:20;;;;;;;4.30;3.00;;;;;;;15.80;83.30;98286.97;79640;1293;3012826;-64
2023/06/30 00:51:49;;;;;;;7.00;3.60;;;;;;;16.29;81.29;98285.64;78297;1298;3050145;-63
2023/06/30 00:54:15;;;;;;;4.50;3.10;;;;;;;16.19;80.74;98282.91;79656;1295;3013046;-64
2023/06/30 00:56:43;;;;;;;6.40;3.70;;;;;;;15.99;81.11;98287.05;79565;1298;3011961;-61
2023/06/30 00:59:11;;;;;;;6.20;4.10;;;;;;;15.62;82.88;98289.15;78447;1296;3052836;-65
2023/06/30 01:01:41;;;;;;;8.40;3.70;;;;;;;15.54;83.21;98289.11;79642;1297;3013118;-61
2023/06/30 01:04:32;;;;;;;4.10;2.90;;;;;;;15.47;83.23;98291.16;78361;1295;3056657;-63
2023/06/30 01:07:17;;;;;;;5.40;3.40;;;;;;;15.80;83.49;98290.88;78404;1298;3049559;-64
2023/06/30 01:09:53;;;;;;;4.70;4.00;;;;;;;16.13;81.35;98291.66;78362;1297;3053210;-63
2023/06/30 01:12:22;;;;;;;6.20;3.80;;;;;;;15.80;82.55;98296.55;78393;1297;3050114;-63
2023/06/30 01:14:49;;;;;;;4.30;3.70;;;;;;;15.79;82.51;98301.03;79731;1298;3018490;-64
2023/06/30 01:17:16;;;;;;;6.50;3.50;;;;;;;15.63;82.61;98303.65;79460;1300;3011667;-63
2023/06/30 01:19:44;;;;;;;4.70;3.60;;;;;;;15.34;85.05;98302.66;78461;1297;3028059;-62
2023/06/30 01:22:18;;;;;;;4.70;3.70;;;;;;;16.08;82.64;98304.01;79560;1293;3015177;-66
2023/06/30 01:24:47;;;;;;;5.10;4.30;;;;;;;16.11;81.11;98308.23;78319;1298;3052580;-62
2023/06/30 01:27:14;;;;;;;5.00;3.70;;;;;;;15.83;82.65;98302.23;79761;1297;3013595;-62
2023/06/30 01:29:42;;;;;;;7.20;4.40;;;;;;;15.71;82.64;98296.73;79553;1292;3011460;-63
2023/06/30 01:32:13;;;;;;;4.10;3.10;;;;;;;15.60;83.42;98301.16;78346;1297;3068978;-64
2023/06/30 01:34:40;;;;;;;5.90;3.80;;;;;;;16.18;82.02;98302.27;79592;1295;3012859;-63
2023/06/30 01:37:08;;;;;;;8.40;3.70;;;;;;;16.07;82.00;98299.27;78413;1292;3028798;-61
2023/06/30 01:39:34;;;;;;;6.40;4.50;;;;;;;16.27;80.57;98305.55;79599;1292;3013369;-63
2023/06/30 01:42:01;;;;;;;6.50;4.90;;;;;;;16.01;81.38;98300.14;79625;1292;3011712;-64
2023/06/30 01:44:28;;;;;;;5.70;4.40;;;;;;;15.68;82.36;98289.84;78402;1297;3029217;-60
2023/06/30 01:46:56;;;;;;;4.80;3.50;;;;;;;15.35;84.77;98293.96;79707;1298;3016081;-63
2023/06/30 01:49:24;;;;;;;7.60;4.50;;;;;;;16.10;82.38;98291.92;79460;1294;3011667;-62
2023/06/30 01:51:52;;;;;;;5.30;4.00;;;;;;;16.23;81.09;98287.75;78065;1293;3056550;-63
2023/06/30 01:54:19;;;;;;;5.40;4.20;;;;;;;16.22;81.10;98288.03;79425;1295;3013356;-63
2023/06/30 01:56:49;;;;;;;7.50;4.70;;;;;;;15.83;82.36;98294.12;79424;1296;3011859;-65
2023/06/30 01:59:17;;;;;;;8.40;4.90;;;;;;;15.55;83.57;98288.21;78231;1298;3054052;-63
2023/06/30 02:01:44;;;;;;;5.30;3.90;;;;;;;15.38;85.17;98288.53;79589;1298;3013113;-64
2023/06/30 02:04:11;;;;;;;6.40;4.10;;;;;;;15.75;84.66;98293.92;79604;1296;3013627;-63
2023/06/30 02:06:39;;;;;;;6.40;4.60;;;;;;;15.93;83.62;98292.48;78360;1295;3028755;-63
2023/06/30 02:09:06;;;;;;;6.90;4.60;;;;;;;15.90;82.97;98293.94;79542;1295;3013391;-62
2023/06/30 02:11:33;;;;;;;5.80;4.40;;;;;;;15.63;83.89;98289.98;79537;1294;3011773;-65
2023/06/30 02:14:00;;;;;;;4.10;3.50;;;;;;;15.54;84.35;98294.59;78439;1297;3026493;-64
2023/06/30 02:16:27;;;;;;;5.90;4.10;;;;;;;15.92;83.85;98286.36;79659;1297;3021353;-63
2023/06/30 02:18:55;;;;;;;4.60;4.00;;;;;;;16.36;81.59;98283.46;79568;1297;3012902;-62
2023/06/30 02:21:24;;;;;;;7.70;3.70;;;;;;;16.11;81.78;98288.67;78378;1298;3056387;-63
2023/06/30 02:23:51;;;;;;;5.80;4.10;;;;;;;15.80;83.19;98283.99;79535;1296;3014330;-62
2023/06/30 02:26:19;;;;;;;6.20;4.30;;;;;;;15.64;83.91;98296.95;79589;1293;3011666;-61
2023/06/30 02:28:47;;;;;;;8.10;3.60;;;;;;;15.62;84.31;98291.33;78221;1294;3052573;-64
2023/06/30 02:31:17;;;;;;;3.80;3.40;;;;;;;16.47;81.96;98299.38;79571;1295;3011871;-63
2023/06/30 02:33:45;;;;;;;6.00;4.10;;;;;;;16.62;80.17;98297.20;79020;1294;3013950;-64
2023/06/30 02:36:12;;;;;;;6.90;4.30;;;;;;;16.37;80.96;98306.52;79522;1298;3013796;-61
2023/06/30 02:38:39;;;;;;;6.10;4.50;;;;;;;16.15;81.46;98299.98;79596;1295;3011603;-62
2023/06/30 02:41:07;;;;;;;4.90;3.60;;;;;;;15.82;83.03;98297.11;78170;1298;3028424;-64
2023/06/30 02:43:36;;;;;;;5.40;3.70;;;;;;;15.67;84.23;98292.77;79625;1298;3013615;-61
2023/06/30 02:46:06;;;;;;;6.50;4.40;;;;;;;16.23;83.41;98299.16;79017;1297;3011770;-61
2023/06/30 02:48:33;;;;;;;5.70;4.20;;;;;;;16.70;80.85;98305.01;79563;1295;3020626;-63
2023/06/30 02:50:59;;;;;;;5.90;4.10;;;;;;;16.48;80.75;98297.38;79520;1297;3011564;-64
2023/06/30 02:53:27;;;;;;;4.80;3.60;;;;;;;16.17;82.01;98295.64;78172;1295;3024949;-63
2023/06/30 02:55:54;;;;;;;10.60;4.40;;;;;;;16.02;82.44;98301.20;79515;1295;3013153;-64
2023/06/30 02:58:22;;;;;;;5.80;3.90;;;;;;;15.96;83.09;98306.07;79574;1297;3013481;-63
2023/06/30 03:00:51;;;;;;;4.70;4.00;;;;;;;16.28;83.25;98307.23;78291;1298;3052296;-62
2023/06/30 03:03:18;;;;;;;6.40;4.40;;;;;;;16.49;81.32;98303.33;79624;1297;3012946;-61
2023/06/30 03:05:45;;;;;;;5.50;4.00;;;;;;;16.40;81.12;98302.66;79541;1294;3011580;-61
2023/06/30 03:08:13;;;;;;;6.20;4.40;;;;;;;16.16;82.27;98302.30;78153;1295;3057347;-62
2023/06/30 03:10:41;;;;;;;6.40;3.60;;;;;;;16.02;83.36;98300.73;79541;1294;3013058;-64
2023/06/30 03:13:08;;;;;;;6.90;4.10;;;;;;;16.80;81.12;98299.42;79545;1296;3013361;-62
2023/06/30 03:15:36;;;;;;;10.10;4.60;;;;;;;16.93;79.85;98292.61;78273;1295;3052633;-62
2023/06/30 03:18:03;;;;;;;5.50;3.80;;;;;;;16.82;79.89;98290.52;79520;1298;3018393;-63
2023/06/30 03:20:31;;;;;;;7.50;4.20;;;;;;;16.69;79.93;98294.25;79437;1295;3012132;-62
2023/06/30 03:23:00;;;;;;;4.90;3.90;;;;;;;16.48;80.84;98297.95;78387;1297;3056316;-64
2023/06/30 03:25:26;;;;;;;4.30;3.30;;;;;;;16.48;81.48;98301.48;79507;1294;3020840;-63
2023/06/30 03:27:55;;;;;;;6.40;4.20;;;;;;;16.88;80.65;98308.46;79507;1295;3011652;-65
2023/06/30 03:30:23;;;;;;;8.70;4.40;;;;;;;16.99;79.35;98304.30;78252;1298;3053248;-65
2023/06/30 03:32:49;;;;;;;6.10;4.20;;;;;;;16.62;81.24;98297.37;79521;1297;3020558;-64
2023/06/30 03:35:16;;;;;;;7.20;4.80;;;;;;;16.55;81.55;98298.52;79690;1295;3013706;-63
2023/06/30 03:37:44;;;;;;;8.10;4.10;;;;;;;16.43;81.65;98308.61;78320;1297;3028192;-63
2023/06/30 03:40:11;;;;;;;7.70;4.40;;;;;;;16.34;82.40;98305.36;79503;1295;3013532;-61
2023/06/30 03:42:38;;;;;;;9.50;4.50;;;;;;;16.84;81.79;98299.48;79556;1295;3013062;-62
2023/06/30 03:45:07;;;;;;;12.40;4.10;;;;;;;17.10;79.81;98305.70;78226;1294;3052991;-62
2023/06/30 03:47:34;;;;;;;8.40;5.00;;;;;;;17.09;79.48;98304.55;79590;1294;3012860;-62
2023/06/30 03:50:01;;;;;;;6.80;4.50;;;;;;;16.98;79.68;98312.83;79572;1295;3013541;-63
2023/06/30 03:52:29;;;;;;;7.10;5.60;;;;;;;16.77;80.33;98306.11;78336;1298;3056676;-65
2023/06/30 03:54:56;;;;;;;5.50;4.00;;;;;;;16.67;81.58;98294.44;79571;1295;3012988;-62
2023/06/30 03:57:22;;;;;;;6.30;4.40;;;;;;;17.19;80.11;98293.08;79513;1296;3013420;-62
2023/06/30 03:59:50;;;;;;;6.80;5.10;;;;;;;17.47;79.14;98292.58;78251;1298;3053156;-63
2023/06/30 04:02:18;;;;;;;8.00;5.30;;;;;;;17.32;79.19;98287.74;79548;1297;3014747;-62
2023/06/30 04:04:45;;;;;;;10.20;6.00;;;;;;;17.26;79.07;98297.66;79486;1293;3013778;-61
2023/06/30 04:07:13;;;;;;;9.20;6.40;;;;;;;17.19;79.27;98298.02;78332;1298;3056271;-65
2023/06/30 04:09:39;;;;;;;9.30;5.20;;;;;;;17.02;80.37;98295.86;79495;1294;3013559;-63
2023/06/30 04:12:07;;;;;;;7.80;5.30;;;;;;;17.62;79.06;98291.61;79525;1296;3011628;-62
2023/06/30 04:14:34;;;;;;;7.30;5.10;;;;;;;18.08;76.50;98285.84;78443;1295;3028327;-66
2023/06/30 04:17:02;;;;;;;8.60;6.00;;;;;;;18.14;76.12;98290.04;79672;1293;3013627;-62
2023/06/30 04:19:28;;;;;;;10.60;6.20;;;;;;;17.94;76.42;98286.71;79495;1298;3011486;-63
2023/06/30 04:21:56;;;;;;;13.40;6.50;;;;;;;17.85;76.27;98295.73;78285;1298;3025980;-61
2023/06/30 04:24:24;;;;;;;7.70;5.80;;;;;;;17.63;76.94;98300.35;79599;1295;3014743;-64
2023/06/30 04:26:51;;;;;;;11.60;4.90;;;;;;;17.53;77.99;98300.75;79518;1295;3011666;-65
2023/06/30 04:29:18;;;;;;;8.20;5.30;;;;;;;18.23;76.16;98295.87;78413;1297;3050962;-63
2023/06/30 04:31:45;;;;;;;6.80;4.50;;;;;;;18.39;75.47;98299.46;79648;1298;3013017;-64
2023/06/30 04:34:12;;;;;;;8.20;5.60;;;;;;;18.40;74.60;98297.50;79700;1295;3011521;-64
2023/06/30 04:36:40;;;;;;;11.10;6.30;;;;;;;18.29;75.27;98298.34;78415;1298;3028608;-61
2023/06/30 04:39:06;;;;;;;10.30;6.40;;;;;;;18.09;76.14;98300.66;79546;1295;3013685;-64
2023/06/30 04:41:33;;;;;;;8.20;6.40;;;;;;;17.91;76.82;98302.30;79589;1295;3011522;-65
2023/06/30 04:44:01;;;;;;;10.30;4.70;;;;;;;17.99;76.68;98305.71;78283;1297;3027671;-63
2023/06/30 04:46:28;;;;;;;7.30;5.00;;;;;;;18.74;75.04;98307.52;79541;1295;3012723;-65
2023/06/30 04:48:55;;;;;;;9.30;5.50;;;;;;;18.89;73.92;98306.84;79566;1297;3013147;-65
2023/06/30 04:51:23;;;;;;;7.40;5.70;;;;;;;18.77;73.81;98308.70;78357;1298;3025806;-63
2023/06/30 04:53:50;;;;;;;10.60;6.00;;;;;;;18.67;73.86;98311.52;79584;1295;3013104;-66
2023/06/30 04:56:16;;;;;;;7.80;5.90;;;;;;;18.45;75.20;98311.14;79644;1295;3012073;-65
2023/06/30 04:58:45;;;;;;;7.90;5.60;;;;;;;18.28;76.13;98310.59;78306;1297;3028724;-65
2023/06/30 05:01:11;;;;;;;9.20;6.70;;;;;;;18.15;75.77;98309.41;79767;1298;3013128;-63
2023/06/30 05:03:38;;;;;;;9.10;5.40;;;;;;;18.00;76.77;98306.31;79719;1294;3011841;-65
2023/06/30 05:06:06;;;;;;;9.00;5.70;;;;;;;18.66;74.94;98303.23;78190;1298;3026498;-64
2023/06/30 05:08:34;;;;;;;11.10;5.20;;;;;;;19.24;72.87;98308.83;79660;1294;3011985;-66
2023/06/30 05:11:00;;;;;;;9.10;5.50;;;;;;;19.26;72.08;98307.12;79627;1295;3011948;-65
2023/06/30 05:13:29;;;;;;;9.70;5.20;;;;;;;19.34;71.80;98308.50;78320;1297;3052087;-62
2023/06/30 05:15:55;;;;;;;8.30;5.60;;;;;;;19.16;72.28;98318.08;79644;1297;3013023;-62
2023/06/30 05:18:22;;;;;;;13.90;5.50;;;;;;;19.06;72.23;98325.42;79631;1294;3011565;-63
2023/06/30 05:20:50;;;;;;;6.70;5.50;;;;;;;18.84;72.86;98323.29;78378;1297;3025303;-63
2023/06/30 05:23:16;;;;;;;7.80;5.50;;;;;;;18.73;72.74;98324.96;79688;1295;3013689;-64
2023/06/30 05:25:43;;;;;;;9.30;4.70;;;;;;;18.65;73.50;98320.77;79493;1295;3011977;-63
2023/06/30 05:28:11;;;;;;;6.50;4.60;;;;;;;19.37;71.70;98330.60;78352;1296;3027685;-64
2023/06/30 05:30:39;;;;;;;9.40;4.50;;;;;;;19.52;70.68;98320.31;79646;1297;3013421;-64
2023/06/30 05:33:05;;;;;;;8.40;5.30;;;;;;;19.65;70.36;98329.87;79574;1297;3012894;-64
2023/06/30 05:35:33;;;;;;;9.20;5.60;;;;;;;19.57;69.62;98335.85;78441;1297;3057114;-63
2023/06/30 05:38:00;;;;;;;6.90;5.00;;;;;;;19.38;70.59;98336.86;79610;1295;3013489;-64
2023/06/30 05:40:26;;;;;;;7.70;4.80;;;;;;;19.24;71.29;98332.71;79528;1298;3011645;-65
2023/06/30 05:42:54;;;;;;;7.90;4.60;;;;;;;19.14;71.71;98335.16;78445;1298;3029195;-62
2023/06/30 05:45:21;;;;;;;9.70;5.10;;;;;;;19.13;71.91;98334.96;79628;1297;3018603;-64
2023/06/30 05:47:48;;;;;;;8.70;4.50;;;;;;;19.13;72.39;98337.39;79561;1294;3013628;-65
2023/06/30 05:50:17;;;;;;;6.20;3.80;;;;;;;19.72;70.94;98332.95;78286;1298;3028411;-62
2023/06/30 05:52:43;;;;;;;6.90;4.70;;;;;;;20.03;69.06;98330.19;79572;1293;3014414;-66
2023/06/30 05:55:10;;;;;;;8.00;4.30;;;;;;;20.16;68.06;98337.76;79522;1296;3011484;-62
2023/06/30 05:57:38;;;;;;;8.30;4.30;;;;;;;20.08;67.42;98324.48;78305;1298;3052833;-64
2023/06/30 06:00:07;;;;;;;10.30;4.80;;;;;;;19.93;67.08;98326.41;79537;1295;3020709;-66
2023/06/30 06:02:39;;;;;;;9.50;4.30;;;;;;;19.69;67.71;98320.97;78478;1294;3051342;-63
2023/06/30 06:05:06;;;;;;;7.60;4.30;;;;;;;19.63;67.54;98320.13;79587;1294;3013526;-64
2023/06/30 06:07:34;;;;;;;9.50;4.90;;;;;;;19.59;67.20;98310.96;79691;1295;3012786;-65
2023/06/30 06:10:04;;;;;;;7.20;4.40;;;;;;;19.34;68.54;98302.47;78464;1295;3049602;-63
2023/06/30 06:12:31;;;;;;;12.30;4.60;;;;;;;19.47;68.08;98293.71;79714;1297;3013591;-62
2023/06/30 06:14:57;;;;;;;7.00;4.40;;;;;;;19.47;68.13;98295.52;79552;1295;3013775;-63
2023/06/30 06:17:25;;;;;;;10.20;4.90;;;;;;;19.53;68.35;98297.66;78393;1297;3052904;-61
2023/06/30 06:19:52;;;;;;;7.00;4.40;;;;;;;19.47;69.13;98299.17;79516;1295;3013019;-67
2023/06/30 06:22:19;;;;;;;8.30;4.70;;;;;;;19.63;68.30;98305.71;79638;1295;3013285;-64
2023/06/30 06:24:46;;;;;;;5.10;4.10;;;;;;;19.62;67.13;98310.08;78344;1297;3028925;-61
2023/06/30 06:27:15;;;;;;;9.40;4.10;;;;;;;19.67;66.62;98307.23;79585;1296;3012731;-65
2023/06/30 06:29:42;;;;;;;7.10;4.40;;;;;;;19.68;66.69;98320.74;79545;1297;3011779;-63
2023/06/30 06:32:10;;;;;;;5.50;4.30;;;;;;;19.69;67.40;98304.33;78472;1298;3051527;-65
2023/06/30 06:34:38;;;;;;;7.20;3.90;;;;;;;19.79;67.04;98305.68;79626;1294;3013565;-63
2023/06/30 06:37:04;;;;;;;9.00;4.50;;;;;;;19.87;66.63;98304.85;79469;1298;3011490;-66
2023/06/30 06:39:32;;;;;;;6.00;3.90;;;;;;;19.90;66.49;98306.36;78286;1298;3051404;-63
2023/06/30 06:41:59;;;;;;;9.00;4.30;;;;;;;19.97;66.75;98297.00;79668;1297;3013022;-64
2023/06/30 06:44:26;;;;;;;6.80;3.60;;;;;;;20.05;65.54;98295.27;79518;1298;3011722;-62
2023/06/30 06:47:34;;;;;;;4.30;3.70;;;;;;;20.12;63.97;98299.24;78408;1298;3051348;-64
2023/06/30 06:50:03;;;;;;;11.00;3.60;;;;;;;20.12;63.56;98305.34;78195;1297;3057768;-62
2023/06/30 06:52:30;;;;;;;6.80;4.00;;;;;;;20.05;62.96;98315.04;79822;1295;3014074;-64
2023/06/30 06:54:57;;;;;;;10.10;3.90;;;;;;;20.11;62.78;98307.52;79660;1298;3011486;-64
2023/06/30 06:57:25;;;;;;;5.10;3.90;;;;;;;20.23;63.09;98306.31;78389;1298;3052613;-63
2023/06/30 06:59:52;;;;;;;15.40;4.40;;;;;;;20.43;62.79;98308.44;79602;1298;3013590;-63
2023/06/30 07:02:19;;;;;;;9.00;4.10;;;;;;;20.63;62.31;98306.75;79563;1297;3012894;-65
2023/06/30 07:04:47;;;;;;;8.00;4.00;;;;;;;20.67;61.78;98310.92;78247;1294;3027049;-62
2023/06/30 07:07:14;;;;;;;7.10;4.30;;;;;;;20.63;61.84;98310.13;79542;1294;3013359;-65
2023/06/30 07:09:41;;;;;;;7.80;4.10;;;;;;;20.66;61.20;98313.07;79457;1295;3011776;-64
2023/06/30 07:12:09;;;;;;;8.80;4.20;;;;;;;20.67;60.96;98320.11;78261;1298;3028061;-62
2023/06/30 07:14:35;;;;;;;9.80;4.20;;;;;;;20.77;60.41;98305.05;79592;1297;3013533;-64
2023/06/30 07:17:02;;;;;;;9.30;4.70;;;;;;;21.00;60.06;98309.57;79602;1298;3011577;-65
2023/06/30 07:19:30;;;;;;;7.20;4.10;;;;;;;21.11;60.54;98306.81;78518;1295;3026220;-64
2023/06/30 07:21:57;;;;;;;5.90;3.50;;;;;;;21.18;60.13;98311.06;79448;1294;3013356;-61
2023/06/30 07:24:24;;;;;;;4.10;3.10;;;;;;;21.18;59.90;98315.14;79576;1295;3011736;-63
2023/06/30 07:26:51;;;;;;;6.90;3.70;;;;;;;21.16;59.64;98308.13;78251;1298;3028064;-62
2023/06/30 07:29:18;;;;;;;8.90;4.40;;;;;;;21.04;59.26;98302.84;79600;1295;3018628;-63
2023/06/30 07:31:46;;;;;;;9.00;3.80;;;;;;;21.06;59.33;98300.77;79654;1297;3011516;-62
2023/06/30 07:34:18;;;;;;;15.40;4.70;;;;;;;21.11;59.39;98313.34;78567;1293;3056322;-64
2023/06/30 07:36:46;;;;;;;4.70;3.70;;;;;;;20.98;59.26;98306.83;79604;1294;3013316;-63
2023/06/30 07:39:13;;;;;;;7.40;4.10;;;;;;;21.07;59.03;98309.23;78433;1295;3052110;-63
2023/06/30 07:41:40;;;;;;;5.20;3.50;;;;;;;21.18;58.97;98305.45;79551;1295;3013744;-62
2023/06/30 07:44:09;;;;;;;5.20;3.50;;;;;;;21.21;58.28;98308.83;79547;1297;3011720;-65
2023/06/30 07:46:38;;;;;;;5.60;3.50;;;;;;;21.24;57.80;98312.85;78441;1294;3069299;-61
2023/06/30 07:49:04;;;;;;;6.90;3.80;;;;;;;21.21;58.34;98302.52;79584;1297;3018914;-65
2023/06/30 07:51:31;;;;;;;5.90;3.50;;;;;;;21.20;58.65;98304.84;79620;1294;3012059;-64
2023/06/30 07:53:59;;;;;;;6.00;3.80;;;;;;;21.30;57.92;98306.25;78355;1294;3026430;-63
2023/06/30 07:56:26;;;;;;;6.20;3.20;;;;;;;21.42;57.50;98303.45;79674;1294;3011629;-65
2023/06/30 07:58:52;;;;;;;10.40;3.80;;;;;;;21.58;57.00;98295.14;79493;1295;3011692;-65
2023/06/30 08:01:20;;;;;;;9.30;4.00;;;;;;;21.67;56.61;98295.23;78490;1297;3028413;-62
2023/06/30 08:03:48;;;;;;;4.50;3.50;;;;;;;21.62;56.09;98302.71;79566;1294;3018727;-63
2023/06/30 08:06:16;;;;;;;4.80;4.00;;;;;;;21.65;56.11;98289.98;79636;1294;3012925;-64
2023/06/30 08:08:45;;;;;;;5.70;3.50;;;;;;;21.57;56.27;98286.69;78434;1295;3053215;-63
2023/06/30 08:11:12;;;;;;;5.80;3.70;;;;;;;21.68;55.66;98280.77;79688;1298;3013357;-64
2023/06/30 08:13:40;;;;;;;5.60;3.80;;;;;;;21.87;55.63;98280.70;79649;1297;3013143;-64
2023/06/30 08:16:09;;;;;;;9.30;4.10;;;;;;;21.94;55.70;98293.47;78263;1295;3068603;-61
2023/06/30 08:18:35;;;;;;;7.80;3.70;;;;;;;22.05;55.61;98280.30;79621;1293;3013449;-64
2023/06/30 08:21:02;;;;;;;7.60;4.10;;;;;;;21.90;51.40;98288.46;79555;1297;3011543;-63
2023/06/30 08:23:31;;;;;;;11.70;4.00;;;;;;;21.96;50.84;98289.52;78363;1295;3053629;-64
2023/06/30 08:25:57;;;;;;;6.00;4.00;;;;;;;22.08;51.08;98285.69;77637;1297;3016029;-66
2023/06/30 08:28:24;;;;;;;10.70;4.50;;;;;;;22.24;51.09;98287.72;79570;1295;3011453;-64
2023/06/30 08:30:52;;;;;;;6.50;4.00;;;;;;;22.16;50.89;98296.72;78454;1298;3028791;-63
2023/06/30 08:33:21;;;;;;;7.70;4.20;;;;;;;22.16;51.77;98293.73;79557;1295;3012825;-63
2023/06/30 08:35:48;;;;;;;5.00;3.30;;;;;;;22.20;53.56;98294.75;79546;1294;3011598;-65
2023/06/30 08:38:16;;;;;;;9.90;4.10;;;;;;;22.26;53.28;98296.42;78443;1297;3053009;-64
2023/06/30 08:40:42;;;;;;;8.00;3.50;;;;;;;22.32;51.49;98301.89;79579;1294;3012745;-66
2023/06/30 08:43:13;;;;;;;7.10;3.60;;;;;;;22.52;50.67;98290.77;79547;1294;3013550;-64
2023/06/30 08:45:43;;;;;;;7.10;4.00;;;;;;;22.59;50.91;98294.50;78294;1298;3069048;-65
2023/06/30 08:48:09;;;;;;;7.50;3.70;;;;;;;22.63;51.11;98291.15;79782;1294;3012009;-64
2023/06/30 08:50:39;;;;;;;5.80;3.50;;;;;;;22.65;51.36;98287.70;78503;1298;3026990;-65
2023/06/30 08:53:06;;;;;;;4.10;3.10;;;;;;;22.73;51.01;98295.05;79723;1295;3013495;-63
2023/06/30 08:55:32;;;;;;;7.00;3.70;;;;;;;22.81;51.12;98286.27;79712;1295;3013404;-65
2023/06/30 08:58:00;;;;;;;8.10;3.90;;;;;;;22.82;49.44;98289.39;78467;1298;3026052;-62
2023/06/30 09:00:27;;;;;;;5.80;3.30;;;;;;;22.83;49.35;98290.48;79593;1297;3013727;-64
2023/06/30 09:02:54;;;;;;;5.00;3.50;;;;;;;22.86;49.03;98292.30;79499;1297;3012223;-65
2023/06/30 09:05:23;;;;;;;5.60;3.50;;;;;;;22.94;49.39;98281.50;78337;1298;3026733;-63
2023/06/30 09:07:57;;;;;;;6.20;3.50;;;;;;;22.94;48.27;98289.56;79847;1295;3011930;-63
2023/06/30 09:10:28;;;;;;;4.90;3.40;;;;;;;22.94;47.28;98288.16;78526;1295;3053793;-64
2023/06/30 09:12:57;;;;;;;7.80;3.30;;;;;;;23.10;46.88;98290.69;79406;1295;3011648;-65
2023/06/30 09:15:25;;;;;;;8.70;4.80;;;;;;;22.90;45.57;98289.64;78466;1294;3051850;-65
2023/06/30 09:17:52;;;;;;;8.00;3.90;;;;;;;22.98;46.36;98287.15;79438;1298;3018657;-66
2023/06/30 09:26:14;;;;;;;;;;;;;;;23.39;46.57;98282.77;78514;1295;3050135;-63
2023/06/30 09:28:43;;;;;;;9.40;4.30;;;;;;;23.37;46.71;98286.02;78521;1295;3053216;-63
2023/06/30 09:31:10;;;;;;;6.80;4.40;;;;;;;23.43;46.59;98277.08;79610;1298;3012727;-65
2023/06/30 09:33:38;;;;;;;11.00;4.50;;;;;;;23.53;46.55;98275.92;79723;1295;3011721;-63
2023/06/30 09:36:06;;;;;;;5.90;4.50;;;;;;;23.28;46.29;98289.63;78477;1296;3069640;-63
2023/06/30 09:38:35;;;;;;;11.00;4.90;;;;;;;23.19;46.79;98289.03;79643;1295;3012504;-63
2023/06/30 09:41:17;;;;;;;10.60;4.40;;;;;;;23.39;46.10;98278.89;79531;1294;3011624;-64
2023/06/30 09:43:45;;;;;;;9.20;5.10;;;;;;;23.61;45.67;98277.73;78199;1298;3053038;-63
2023/06/30 09:48:58;;;;;;;9.50;5.10;;;;;;;23.70;46.13;98276.41;80637;1295;3013166;-64
2023/06/30 09:51:25;;;;;;;7.70;5.30;;;;;;;23.94;45.97;98283.77;79653;1292;3011314;-63
2023/06/30 09:53:53;;;;;;;8.20;5.40;;;;;;;23.78;45.86;98289.73;79540;1295;3011875;-65
2023/06/30 09:56:21;;;;;;;10.10;5.10;;;;;;;23.81;45.30;98285.33;78433;1298;3054058;-64
2023/06/30 09:58:50;;;;;;;8.10;4.70;;;;;;;23.83;45.80;98282.34;79781;1292;3012696;-64
2023/06/30 10:01:20;;;;;;;8.70;4.40;;;;;;;23.93;46.18;98275.65;77041;1292;3013198;-66
2023/06/30 10:03:48;;;;;;;7.80;4.70;;;;;;;23.96;46.18;98281.09;79727;1289;3012961;-64
2023/06/30 10:06:17;;;;;;;11.10;4.60;;;;;;;23.99;46.39;98272.20;79913;1292;3013756;-66
2023/06/30 10:08:45;;;;;;;10.50;4.60;;;;;;;24.10;46.68;98272.90;78542;1294;3050280;-65
2023/06/30 10:11:12;;;;;;;11.80;4.60;;;;;;;24.36;46.21;98273.77;79915;1292;3013748;-66
2023/06/30 10:13:43;;;;;;;9.60;4.90;;;;;;;24.59;45.60;98270.58;79800;1292;3013014;-65
2023/06/30 10:16:11;;;;;;;5.40;4.20;;;;;;;24.51;45.49;98271.03;78573;1292;3049713;-63
2023/06/30 10:18:41;;;;;;;10.10;4.50;;;;;;;24.50;45.48;98265.49;79811;1291;3014956;-65
2023/06/30 10:21:10;;;;;;;10.80;4.10;;;;;;;24.49;45.26;98266.21;79122;1293;3013575;-65
2023/06/30 10:23:37;;;;;;;7.80;4.30;;;;;;;24.28;45.10;98264.13;79736;1296;3013780;-65
2023/06/30 10:26:04;;;;;;;10.00;3.90;;;;;;;24.46;44.79;98268.58;79797;1294;3011475;-65
2023/06/30 10:28:33;;;;;;;8.70;3.80;;;;;;;24.63;44.93;98280.41;78634;1293;3026380;-64
2023/06/30 10:31:00;;;;;;;9.60;3.90;;;;;;;24.41;45.58;98280.89;79800;1291;3013644;-64
2023/06/30 10:33:27;;;;;;;8.00;4.00;;;;;;;24.46;45.37;98272.13;79755;1291;3011696;-63
2023/06/30 10:35:56;;;;;;;7.00;3.30;;;;;;;24.62;44.87;98265.43;78442;1290;3048448;-65
2023/06/30 10:38:23;;;;;;;8.30;4.00;;;;;;;24.53;44.66;98271.07;79859;1294;3012592;-65
2023/06/30 10:40:50;;;;;;;4.80;3.80;;;;;;;24.45;44.78;98271.26;79667;1294;3011548;-64
2023/06/30 10:43:18;;;;;;;8.10;3.70;;;;;;;24.52;44.89;98263.15;78467;1297;3052971;-64
2023/06/30 10:46:07;;;;;;;7.90;3.70;;;;;;;24.52;44.91;98266.92;79828;1295;3020634;-64
2023/06/30 10:48:38;;;;;;;5.60;3.60;;;;;;;24.69;44.48;98264.38;78419;1294;3057184;-65
2023/06/30 10:51:05;;;;;;;7.00;3.90;;;;;;;24.64;44.52;98260.58;79837;1292;3012786;-66
2023/06/30 10:53:31;;;;;;;5.30;3.60;;;;;;;24.82;44.69;98256.29;79724;1292;3013432;-63
2023/06/30 10:55:59;;;;;;;6.90;3.90;;;;;;;25.08;44.01;98266.43;78446;1292;3052410;-66
2023/06/30 10:58:26;;;;;;;6.00;4.20;;;;;;;25.14;44.00;98267.27;79765;1294;3013128;-64
2023/06/30 11:01:04;;;;;;;9.30;4.20;;;;;;;25.15;43.86;98267.96;79666;1291;3011862;-62
2023/06/30 11:03:57;;;;;;;7.20;4.10;;;;;;;25.10;44.36;98268.48;78541;1295;3057191;-65
2023/06/30 11:06:25;;;;;;;;;;;;;;;25.07;44.46;98255.95;78553;1295;3050128;-66
2023/06/30 11:09:01;;;;;;;4.90;3.80;;;;;;;25.06;44.63;98254.84;79610;1292;3013515;-64
2023/06/30 11:11:46;;;;;;;5.50;3.80;;;;;;;24.91;44.71;98257.40;78574;1291;3052366;-65
2023/06/30 11:14:14;;;;;;;5.40;3.80;;;;;;;24.89;44.87;98256.75;78584;1292;3052817;-65
2023/06/30 11:17:03;;;;;;;10.00;3.90;;;;;;;24.70;44.96;98263.94;79623;1292;3013658;-66
2023/06/30 11:19:31;;;;;;;5.00;3.40;;;;;;;24.40;45.24;98268.79;78617;1294;3056361;-65
2023/06/30 11:22:23;;;;;;;5.60;4.10;;;;;;;24.40;46.24;98269.20;79812;1292;3018481;-65
2023/06/30 11:24:51;;;;;;;5.30;3.60;;;;;;;24.50;46.70;98270.46;78521;1294;3050026;-63
2023/06/30 11:27:18;;;;;;;9.20;3.60;;;;;;;24.55;46.36;98267.27;79800;1294;3012938;-65
2023/06/30 11:29:45;;;;;;;4.60;3.60;;;;;;;24.62;46.99;98263.06;79664;1294;3011499;-65